createdAt,value
2018-09-20T00:00:24.116Z,74.26
2018-09-20T00:01:34.263Z,74.26
2018-09-20T00:02:44.138Z,74.93
2018-09-20T00:03:54.279Z,75.12
2018-09-20T00:05:03.865Z,75.51
2018-09-20T00:06:13.998Z,75.31
2018-09-20T00:07:24.137Z,75.41
2018-09-20T00:08:34.272Z,75.41
2018-09-20T00:09:44.412Z,75.27
2018-09-20T00:10:54.326Z,75.12
2018-09-20T00:12:04.466Z,75.41
2018-09-20T00:13:14.329Z,74.45
2018-09-20T00:14:24.514Z,73.46
2018-09-20T00:15:34.645Z,73.84
2018-09-20T00:16:44.511Z,73.75
2018-09-20T00:17:54.371Z,73.46
2018-09-20T00:19:04.236Z,73.75
2018-09-20T00:20:14.423Z,73.36
2018-09-20T00:21:24.567Z,74.04
2018-09-20T00:22:34.426Z,74.32
2018-09-20T00:23:44.015Z,73.46
2018-09-20T00:24:53.876Z,73.46
2018-09-20T00:26:03.743Z,73.46
2018-09-20T00:27:13.879Z,73.08
2018-09-20T00:28:24.017Z,72.31
2018-09-20T00:29:34.160Z,72.6
2018-09-20T00:30:43.470Z,72.98
2018-09-20T00:31:53.606Z,72.12
2018-09-20T00:33:03.739Z,71.55
2018-09-20T00:34:13.885Z,71.93
2018-09-20T00:35:23.475Z,71.16
2018-09-20T00:36:33.618Z,72.02
2018-09-20T00:37:43.752Z,71.64
2018-09-20T00:38:53.885Z,71.07
2018-09-20T00:40:03.478Z,71.36
2018-09-20T00:41:13.614Z,70.59
2018-09-20T00:42:23.474Z,70.65
2018-09-20T00:43:33.663Z,71.03
2018-09-20T00:44:43.804Z,70.27
2018-09-20T00:45:53.663Z,69.7
2018-09-20T00:47:03.797Z,70.07
2018-09-20T00:48:13.930Z,69.7
2018-09-20T00:49:23.838Z,69.02
2018-09-20T00:50:33.706Z,69.02
2018-09-20T00:51:43.845Z,69.6
2018-09-20T00:52:54.032Z,69.6
2018-09-20T00:54:03.627Z,69.41
2018-09-20T00:55:13.818Z,68.64
2018-09-20T00:56:23.949Z,68.74
2018-09-20T00:57:34.089Z,69.02
2018-09-20T00:58:43.991Z,68.93
2018-09-20T00:59:54.125Z,68.93
2018-09-20T01:01:04.258Z,69.5
2018-09-20T01:02:14.408Z,69.79
2018-09-20T01:03:24.543Z,69.79
2018-09-20T01:04:34.679Z,69.47
2018-09-20T01:05:44.540Z,69.6
2018-09-20T01:06:54.724Z,69.41
2018-09-20T01:08:04.592Z,68.9
2018-09-20T01:09:14.455Z,69.76
2018-09-20T01:10:24.053Z,69.56
2018-09-20T01:11:34.187Z,70.14
2018-09-20T01:12:44.097Z,70.27
2018-09-20T01:13:53.960Z,70.61
2018-09-20T01:15:03.553Z,70.33
2018-09-20T01:16:13.141Z,71
2018-09-20T01:17:23.274Z,71.38
2018-09-20T01:18:33.508Z,71.28
2018-09-20T01:19:43.646Z,71.57
2018-09-20T01:20:53.781Z,71
2018-09-20T01:22:03.645Z,71.57
2018-09-20T01:23:13.506Z,71.19
2018-09-20T01:24:23.690Z,71.09
2018-09-20T01:25:33.829Z,71.47
2018-09-20T01:26:43.416Z,71.19
2018-09-20T01:27:53.284Z,71.28
2018-09-20T01:29:03.425Z,70.81
2018-09-20T01:30:13.567Z,71.57
2018-09-20T01:31:23.161Z,71.57
2018-09-20T01:32:33.022Z,71.47
2018-09-20T01:33:42.881Z,71.92
2018-09-20T01:34:53.022Z,72.01
2018-09-20T01:36:03.207Z,72.2
2018-09-20T01:37:13.075Z,72.2
2018-09-20T01:38:22.935Z,71.92
2018-09-20T01:39:33.073Z,71.53
2018-09-20T01:40:43.211Z,71.44
2018-09-20T01:41:53.118Z,71.06
2018-09-20T01:43:03.258Z,71.06
2018-09-20T01:44:13.122Z,70.87
2018-09-20T01:45:23.252Z,70.67
2018-09-20T01:46:33.386Z,71.34
2018-09-20T01:47:43.024Z,71.72
2018-09-20T01:48:52.888Z,71.15
2018-09-20T01:50:03.024Z,70.87
2018-09-20T01:51:13.164Z,70.96
2018-09-20T01:52:23.304Z,71.06
2018-09-20T01:53:33.214Z,70.96
2018-09-20T01:54:43.081Z,70.48
2018-09-20T01:55:52.944Z,71.44
2018-09-20T01:57:03.080Z,71.34
2018-09-20T01:58:13.209Z,70.67
2018-09-20T01:59:23.138Z,70.58
2018-09-20T02:00:33.283Z,71.06
2018-09-20T02:01:43.422Z,71.34
2018-09-20T02:02:53.566Z,70.77
2018-09-20T02:04:03.705Z,70.58
2018-09-20T02:05:13.340Z,71.06
2018-09-20T02:06:23.475Z,70.67
2018-09-20T02:07:33.343Z,70.58
2018-09-20T02:08:43.481Z,70.67
2018-09-20T02:09:53.067Z,70.87
2018-09-20T02:11:02.924Z,70.1
2018-09-20T02:12:12.514Z,70.39
2018-09-20T02:13:22.644Z,70.29
2018-09-20T02:14:32.228Z,70.2
2018-09-20T02:15:41.821Z,69.82
2018-09-20T02:16:51.683Z,69.53
2018-09-20T02:18:00.996Z,70.01
2018-09-20T02:19:11.136Z,69.82
2018-09-20T02:20:20.725Z,69.82
2018-09-20T02:21:30.863Z,70.01
2018-09-20T02:22:41.044Z,70.29
2018-09-20T02:23:51.189Z,69.87
2018-09-20T02:25:01.335Z,70.2
2018-09-20T02:26:10.926Z,69.87
2018-09-20T02:27:20.510Z,70.01
2018-09-20T02:28:30.369Z,70.01
2018-09-20T02:29:40.507Z,69.97
2018-09-20T02:30:50.371Z,70.36
2018-09-20T02:32:00.522Z,69.97
2018-09-20T02:33:10.426Z,69.97
2018-09-20T02:34:20.618Z,70.01
2018-09-20T02:35:30.486Z,70.01
2018-09-20T02:36:40.356Z,69.78
2018-09-20T02:37:50.501Z,70.45
2018-09-20T02:39:00.361Z,70.07
2018-09-20T02:40:10.548Z,69.97
2018-09-20T02:41:20.702Z,69.87
2018-09-20T02:42:30.892Z,70.45
2018-09-20T02:43:40.765Z,70.54
2018-09-20T02:44:50.908Z,70.83
2018-09-20T02:46:01.103Z,70.54
2018-09-20T02:47:10.963Z,70.92
2018-09-20T02:48:21.106Z,70.26
2018-09-20T02:49:31.261Z,70.64
2018-09-20T02:50:40.872Z,70.36
2018-09-20T02:51:50.778Z,70.45
2018-09-20T02:53:00.919Z,70.83
2018-09-20T02:54:10.783Z,71.02
2018-09-20T02:55:20.924Z,70.45
2018-09-20T02:56:30.789Z,70.54
2018-09-20T02:57:40.964Z,70.73
2018-09-20T02:58:51.160Z,71.41
2018-09-20T03:00:01.191Z,71.21
2018-09-20T03:01:11.338Z,70.54
2018-09-20T03:02:21.472Z,71.21
2018-09-20T03:03:31.337Z,71.21
2018-09-20T03:04:41.472Z,70.64
2018-09-20T03:05:51.339Z,70.54
2018-09-20T03:07:01.477Z,70.54
2018-09-20T03:08:10.787Z,71.21
2018-09-20T03:09:20.652Z,71.41
2018-09-20T03:10:30.524Z,70.83
2018-09-20T03:11:40.116Z,70.92
2018-09-20T03:12:49.704Z,71.31
2018-09-20T03:13:59.840Z,71.12
2018-09-20T03:15:09.760Z,71.41
2018-09-20T03:16:19.347Z,71.5
2018-09-20T03:17:28.936Z,71.12
2018-09-20T03:18:38.799Z,71.69
2018-09-20T03:19:48.948Z,71.78
2018-09-20T03:20:59.152Z,71.41
2018-09-20T03:22:09.295Z,71.69
2018-09-20T03:23:19.429Z,71.88
2018-09-20T03:24:29.569Z,71.98
2018-09-20T03:25:39.703Z,72.36
2018-09-20T03:26:49.617Z,72.55
2018-09-20T03:27:59.761Z,72.32
2018-09-20T03:29:09.917Z,72.71
2018-09-20T03:30:20.205Z,72.71
2018-09-20T03:31:30.403Z,72.61
2018-09-20T03:32:40.566Z,72.61
2018-09-20T03:33:49.891Z,72.8
2018-09-20T03:34:59.905Z,72.89
2018-09-20T03:36:09.802Z,72.32
2018-09-20T03:37:19.669Z,72.61
2018-09-20T03:38:29.312Z,73.08
2018-09-20T03:39:39.181Z,73.08
2018-09-20T03:40:49.333Z,73.37
2018-09-20T03:41:59.483Z,72.89
2018-09-20T03:43:09.647Z,73.56
2018-09-20T03:44:20.985Z,73.37
2018-09-20T03:45:31.131Z,73.37
2018-09-20T03:46:41.287Z,73.47
2018-09-20T03:47:51.429Z,73.28
2018-09-20T03:49:01.290Z,73.18
2018-09-20T03:50:10.885Z,73.37
2018-09-20T03:51:20.744Z,73.08
2018-09-20T03:52:30.881Z,73.47
2018-09-20T03:53:41.042Z,73.18
2018-09-20T03:54:51.181Z,73.28
2018-09-20T03:56:01.616Z,73.28
2018-09-20T03:57:11.490Z,73.94
2018-09-20T03:58:21.623Z,73.18
2018-09-20T03:59:31.761Z,73.85
2018-09-20T04:00:41.619Z,73.37
2018-09-20T04:01:51.537Z,73.28
2018-09-20T04:03:01.679Z,73.47
2018-09-20T04:04:11.266Z,73.47
2018-09-20T04:05:21.132Z,73.47
2018-09-20T04:06:31.004Z,73.56
2018-09-20T04:07:41.152Z,73.37
2018-09-20T04:08:51.011Z,73.56
2018-09-20T04:10:00.868Z,73.56
2018-09-20T04:11:11.058Z,74.23
2018-09-20T04:12:21.192Z,74.13
2018-09-20T04:13:30.799Z,73.47
2018-09-20T04:14:40.389Z,73.14
2018-09-20T04:15:50.532Z,73.85
2018-09-20T04:17:00.397Z,74.38
2018-09-20T04:18:10.257Z,73.94
2018-09-20T04:19:20.176Z,73.33
2018-09-20T04:20:30.314Z,72.86
2018-09-20T04:21:40.454Z,73.37
2018-09-20T04:22:50.040Z,73.43
2018-09-20T04:23:59.904Z,73.14
2018-09-20T04:25:10.090Z,73.72
2018-09-20T04:26:20.224Z,73.24
2018-09-20T04:27:30.088Z,73.33
2018-09-20T04:28:39.952Z,73.14
2018-09-20T04:29:49.807Z,72.96
2018-09-20T04:30:59.962Z,73.33
2018-09-20T04:32:10.102Z,73.14
2018-09-20T04:33:19.694Z,73.62
2018-09-20T04:34:29.829Z,72.48
2018-09-20T04:35:39.698Z,73.24
2018-09-20T04:36:49.901Z,73.81
2018-09-20T04:37:59.773Z,73.05
2018-09-20T04:39:09.371Z,72.96
2018-09-20T04:40:18.964Z,73.24
2018-09-20T04:41:29.100Z,73.43
2018-09-20T04:42:39.293Z,72.86
2018-09-20T04:43:49.170Z,72.48
2018-09-20T04:44:59.313Z,72.28
2018-09-20T04:46:09.458Z,72.86
2018-09-20T04:47:19.598Z,72.67
2018-09-20T04:48:29.492Z,72.76
2018-09-20T04:49:39.386Z,72.57
2018-09-20T04:50:49.526Z,72.28
2018-09-20T04:51:59.660Z,72.76
2018-09-20T04:53:09.550Z,72.38
2018-09-20T04:54:19.927Z,72.19
2018-09-20T04:55:29.516Z,72.96
2018-09-20T04:56:39.664Z,72.48
2018-09-20T04:57:49.525Z,72.57
2018-09-20T04:58:59.661Z,72.48
2018-09-20T05:00:09.721Z,72.86
2018-09-20T05:01:19.310Z,72.67
2018-09-20T05:02:29.444Z,73.05
2018-09-20T05:03:39.580Z,72.48
2018-09-20T05:04:49.719Z,72.38
2018-09-20T05:05:59.731Z,72.86
2018-09-20T05:07:09.591Z,72.76
2018-09-20T05:08:19.719Z,73.52
2018-09-20T05:09:29.988Z,72.19
2018-09-20T05:10:40.594Z,72.67
2018-09-20T05:11:50.499Z,72.57
2018-09-20T05:13:00.358Z,72.76
2018-09-20T05:14:10.219Z,72.86
2018-09-20T05:15:20.357Z,72.48
2018-09-20T05:16:29.946Z,72.67
2018-09-20T05:17:40.168Z,72.28
2018-09-20T05:18:50.029Z,72.48
2018-09-20T05:19:59.613Z,72.48
2018-09-20T05:21:09.526Z,72.96
2018-09-20T05:22:19.659Z,72.28
2018-09-20T05:23:30.133Z,72.09
2018-09-20T05:24:40.289Z,71.43
2018-09-20T05:25:50.423Z,71.81
2018-09-20T05:27:00.562Z,71.81
2018-09-20T05:28:10.774Z,72.38
2018-09-20T05:29:21.499Z,72.48
2018-09-20T05:30:31.632Z,72.09
2018-09-20T05:31:41.785Z,72.28
2018-09-20T05:32:51.641Z,72
2018-09-20T05:34:01.776Z,72.28
2018-09-20T05:35:11.696Z,71.81
2018-09-20T05:36:21.564Z,72.38
2018-09-20T05:37:31.429Z,72.28
2018-09-20T05:38:41.011Z,72.38
2018-09-20T05:39:50.320Z,71.62
2018-09-20T05:41:00.512Z,72.19
2018-09-20T05:42:10.654Z,72.28
2018-09-20T05:43:20.265Z,72.09
2018-09-20T05:44:30.265Z,72.67
2018-09-20T05:45:40.121Z,71.91
2018-09-20T05:46:50.312Z,72.48
2018-09-20T05:48:00.449Z,72.76
2018-09-20T05:49:10.366Z,72.38
2018-09-20T05:50:20.226Z,72.86
2018-09-20T05:51:30.366Z,72.28
2018-09-20T05:52:40.655Z,72.48
2018-09-20T05:53:50.788Z,72.48
2018-09-20T05:55:00.923Z,71.91
2018-09-20T05:56:11.099Z,72.19
2018-09-20T05:57:21.235Z,71.91
2018-09-20T05:58:31.418Z,71.62
2018-09-20T05:59:41.561Z,71.04
2018-09-20T06:00:51.421Z,71.62
2018-09-20T06:02:01.571Z,71.43
2018-09-20T06:03:11.705Z,71.81
2018-09-20T06:04:21.619Z,71.33
2018-09-20T06:05:31.530Z,71.52
2018-09-20T06:06:41.612Z,71.33
2018-09-20T06:07:51.474Z,71.43
2018-09-20T06:09:01.333Z,71.14
2018-09-20T06:10:11.248Z,71.04
2018-09-20T06:11:21.388Z,70.95
2018-09-20T06:12:30.424Z,71.04
2018-09-20T06:13:40.557Z,71.14
2018-09-20T06:14:50.689Z,70.86
2018-09-20T06:16:00.876Z,70.95
2018-09-20T06:17:10.747Z,70.76
2018-09-20T06:18:20.607Z,70.95
2018-09-20T06:19:30.463Z,71.52
2018-09-20T06:20:39.772Z,71.33
2018-09-20T06:21:49.805Z,71.14
2018-09-20T06:22:59.912Z,70.95
2018-09-20T06:24:09.768Z,70.95
2018-09-20T06:25:19.907Z,70.95
2018-09-20T06:26:29.769Z,70.67
2018-09-20T06:27:40.125Z,70.86
2018-09-20T06:28:50.271Z,70.76
2018-09-20T06:30:00.143Z,71.23
2018-09-20T06:31:10.276Z,70.86
2018-09-20T06:32:20.418Z,71.14
2018-09-20T06:33:32.562Z,71.14
2018-09-20T06:34:42.431Z,71.46
2018-09-20T06:35:52.726Z,70.89
2018-09-20T06:37:02.962Z,71.08
2018-09-20T06:38:12.881Z,70.61
2018-09-20T06:39:22.969Z,71.08
2018-09-20T06:40:32.829Z,70.32
2018-09-20T06:41:42.968Z,70.7
2018-09-20T06:43:21.826Z,71.27
2018-09-20T06:44:32.044Z,70.42
2018-09-20T06:45:42.385Z,70.61
2018-09-20T06:46:51.701Z,70.89
2018-09-20T06:48:01.839Z,71.04
2018-09-20T06:49:11.972Z,70.76
2018-09-20T06:50:21.901Z,70.98
2018-09-20T06:51:32.019Z,70.79
2018-09-20T06:52:41.609Z,70.98
2018-09-20T06:53:51.747Z,70.7
2018-09-20T06:55:01.893Z,70.42
2018-09-20T06:56:12.073Z,70.98
2018-09-20T06:57:22.213Z,70.98
2018-09-20T06:58:32.070Z,70.42
2018-09-20T06:59:42.207Z,69.84
2018-09-20T07:00:52.085Z,70.03
2018-09-20T07:02:01.727Z,70.42
2018-09-20T07:03:11.679Z,70.98
2018-09-20T07:04:22.254Z,70.03
2018-09-20T07:05:32.387Z,69.93
2018-09-20T07:06:41.696Z,70.03
2018-09-20T07:07:51.609Z,70.42
2018-09-20T07:09:01.473Z,70.51
2018-09-20T07:10:11.336Z,69.84
2018-09-20T07:11:21.476Z,69.56
2018-09-20T07:12:31.337Z,69.74
2018-09-20T07:13:41.688Z,69.65
2018-09-20T07:14:52.310Z,69.08
2018-09-20T07:16:02.172Z,69.08
2018-09-20T07:17:12.038Z,68.88
2018-09-20T07:18:22.171Z,69.17
2018-09-20T07:19:32.085Z,68.6
2018-09-20T07:20:42.223Z,69.08
2018-09-20T07:21:52.135Z,69.37
2018-09-20T07:23:02.268Z,68.98
2018-09-20T07:24:12.400Z,69.56
2018-09-20T07:25:22.851Z,68.51
2018-09-20T07:26:32.927Z,68.98
2018-09-20T07:27:42.789Z,68.6
2018-09-20T07:28:52.654Z,68.6
2018-09-20T07:30:02.515Z,69.02
2018-09-20T07:31:12.678Z,68.63
2018-09-20T07:32:22.815Z,68.41
2018-09-20T07:33:32.952Z,68.88
2018-09-20T07:34:42.813Z,68.41
2018-09-20T07:35:52.950Z,68.51
2018-09-20T07:37:03.131Z,67.83
2018-09-20T07:38:13.269Z,67.65
2018-09-20T07:39:23.131Z,67.55
2018-09-20T07:40:33.323Z,67.58
2018-09-20T07:41:43.462Z,67.49
2018-09-20T07:42:53.054Z,68.44
2018-09-20T07:44:03.214Z,67.3
2018-09-20T07:45:13.072Z,67.68
2018-09-20T07:46:23.221Z,67.11
2018-09-20T07:47:33.090Z,67.58
2018-09-20T07:48:43.623Z,67.01
2018-09-20T07:49:53.761Z,66.82
2018-09-20T07:51:03.623Z,66.44
2018-09-20T07:52:13.800Z,66.15
2018-09-20T07:53:23.949Z,65.3
2018-09-20T07:54:34.145Z,65.77
2018-09-20T07:55:44.308Z,65.67
2018-09-20T07:56:54.616Z,65.58
2018-09-20T07:58:04.512Z,65.2
2018-09-20T07:59:14.374Z,65.3
2018-09-20T08:00:24.558Z,66.25
2018-09-20T08:01:34.830Z,65.77
2018-09-20T08:02:45.069Z,65.3
2018-09-20T08:03:55.199Z,65.2
2018-09-20T08:05:04.507Z,65.39
2018-09-20T08:06:14.678Z,65.2
2018-09-20T08:07:24.814Z,65.2
2018-09-20T08:08:34.681Z,65.3
2018-09-20T08:09:44.818Z,65.67
2018-09-20T08:10:54.410Z,65.2
2018-09-20T08:12:04.373Z,65.01
2018-09-20T08:13:13.687Z,65.1
2018-09-20T08:14:23.552Z,64.72
2018-09-20T08:15:33.705Z,64.62
2018-09-20T08:16:43.839Z,64.15
2018-09-20T08:17:53.753Z,63.96
2018-09-20T08:19:03.897Z,64.62
2018-09-20T08:20:13.766Z,64.72
2018-09-20T08:21:23.960Z,64.15
2018-09-20T08:22:34.388Z,65.01
2018-09-20T08:23:43.977Z,65.3
2018-09-20T08:24:53.881Z,64.72
2018-09-20T08:26:03.742Z,65.1
2018-09-20T08:27:13.878Z,64.72
2018-09-20T08:28:23.745Z,64.91
2018-09-20T08:29:33.605Z,64.85
2018-09-20T08:30:43.741Z,64.28
2018-09-20T08:31:53.604Z,64.43
2018-09-20T08:33:03.463Z,65.14
2018-09-20T08:34:13.046Z,64.65
2018-09-20T08:35:23.192Z,65.04
2018-09-20T08:36:33.059Z,63.99
2018-09-20T08:37:43.462Z,64.09
2018-09-20T08:38:53.558Z,63.42
2018-09-20T08:40:03.704Z,63.89
2018-09-20T08:41:21.496Z,62.84
2018-09-20T08:42:31.083Z,63.8
2018-09-20T08:43:40.672Z,64.25
2018-09-20T08:44:50.803Z,63.32
2018-09-20T08:46:00.942Z,63.51
2018-09-20T08:47:18.606Z,63.51
2018-09-20T08:48:28.188Z,64.09
2018-09-20T08:49:38.318Z,63.03
2018-09-20T08:50:47.626Z,63.13
2018-09-20T08:51:57.814Z,63.7
2018-09-20T08:53:07.685Z,63.89
2018-09-20T08:54:17.817Z,62.84
2018-09-20T08:55:27.415Z,62.75
2018-09-20T08:56:37.030Z,61.89
2018-09-20T08:57:46.999Z,62.65
2018-09-20T08:58:57.136Z,62.18
2018-09-20T09:00:06.463Z,62.55
2018-09-20T09:01:16.624Z,62.84
2018-09-20T09:02:26.761Z,60.74
2018-09-20T09:03:36.621Z,60.55
2018-09-20T09:04:46.768Z,60.2
2018-09-20T09:05:55.809Z,61.69
2018-09-20T09:07:05.962Z,60.64
2018-09-20T09:08:15.558Z,61.79
2018-09-20T09:09:25.145Z,60.68
2018-09-20T09:10:35.338Z,61.54
2018-09-20T09:11:45.472Z,61.25
2018-09-20T09:12:55.537Z,61.63
2018-09-20T09:14:05.400Z,60.87
2018-09-20T09:15:14.994Z,60.49
2018-09-20T09:16:24.589Z,60.58
2018-09-20T09:17:34.452Z,59.44
2018-09-20T09:18:44.312Z,59.24
2018-09-20T09:19:54.450Z,59.44
2018-09-20T09:21:04.313Z,59.15
2018-09-20T09:22:14.221Z,59.72
2018-09-20T09:23:24.359Z,59.91
2018-09-20T09:24:34.493Z,59.91
2018-09-20T09:25:44.636Z,59.44
2018-09-20T09:26:54.784Z,60.3
2018-09-20T09:28:04.656Z,59.47
2018-09-20T09:29:13.985Z,58.67
2018-09-20T09:30:23.848Z,58.29
2018-09-20T09:31:33.993Z,58.48
2018-09-20T09:32:44.132Z,58.58
2018-09-20T09:33:54.323Z,58.67
2018-09-20T09:35:04.021Z,58.98
2018-09-20T09:36:14.159Z,58.89
2018-09-20T09:37:24.017Z,57.55
2018-09-20T09:38:34.165Z,58.41
2018-09-20T09:39:46.362Z,58.86
2018-09-20T09:40:55.678Z,57.26
2018-09-20T09:42:05.876Z,58.03
2018-09-20T09:43:16.325Z,58.51
2018-09-20T09:44:25.917Z,58.61
2018-09-20T09:45:35.776Z,57.93
2018-09-20T09:46:45.365Z,58.61
2018-09-20T09:47:55.237Z,58.98
2018-09-20T09:49:04.941Z,58.03
2018-09-20T09:50:14.800Z,57.26
2018-09-20T09:51:24.711Z,56.69
2018-09-20T09:52:34.847Z,57.46
2018-09-20T09:53:44.710Z,56.53
2018-09-20T09:54:54.640Z,56.62
2018-09-20T09:56:04.288Z,55.64
2018-09-20T09:57:15.831Z,54.88
2018-09-20T09:58:25.691Z,56.4
2018-09-20T09:59:35.836Z,56.4
2018-09-20T10:00:46.173Z,54.59
2018-09-20T10:01:56.045Z,55.07
2018-09-20T10:03:05.933Z,55.74
2018-09-20T10:04:15.801Z,55.07
2018-09-20T10:05:25.668Z,53.47
2018-09-20T10:06:35.534Z,53.75
2018-09-20T10:07:45.395Z,54.68
2018-09-20T10:09:03.439Z,54.43
2018-09-20T10:10:13.093Z,53.37
2018-09-20T10:11:23.229Z,54.04
2018-09-20T10:12:32.265Z,55.1
2018-09-20T10:13:42.536Z,55.19
2018-09-20T10:14:53.314Z,54.04
2018-09-20T10:16:03.468Z,53.47
2018-09-20T10:17:13.604Z,53.66
2018-09-20T10:18:23.195Z,52.7
2018-09-20T10:19:33.386Z,52.89
2018-09-20T10:20:43.527Z,53.73
2018-09-20T10:21:53.115Z,53.08
2018-09-20T10:23:03.006Z,53.94
2018-09-20T10:24:12.871Z,53.47
2018-09-20T10:25:23.070Z,52.8
2018-09-20T10:26:32.939Z,52.61
2018-09-20T10:27:43.083Z,52.13
2018-09-20T10:28:52.676Z,51.75
2018-09-20T10:30:02.818Z,51.46
2018-09-20T10:31:13.014Z,52.03
2018-09-20T10:32:22.975Z,52.8
2018-09-20T10:33:32.564Z,52.99
2018-09-20T10:34:42.707Z,51.36
2018-09-20T10:35:52.850Z,51.84
2018-09-20T10:37:03.001Z,51.75
2018-09-20T10:38:12.591Z,51.75
2018-09-20T10:39:22.469Z,53.47
2018-09-20T10:40:32.331Z,52.34
2018-09-20T10:41:41.924Z,51.1
2018-09-20T10:42:52.057Z,50.62
2018-09-20T10:44:01.972Z,51.1
2018-09-20T10:45:11.835Z,51.1
2018-09-20T10:46:21.696Z,50.62
2018-09-20T10:47:31.837Z,51.1
2018-09-20T10:48:41.988Z,51.2
2018-09-20T10:49:51.855Z,50.91
2018-09-20T10:51:01.720Z,50.52
2018-09-20T10:52:11.860Z,49.95
2018-09-20T10:53:21.448Z,49.76
2018-09-20T10:54:31.476Z,49
2018-09-20T10:55:41.217Z,50.05
2018-09-20T10:56:51.086Z,49.86
2018-09-20T10:58:00.953Z,50.52
2018-09-20T10:59:11.108Z,49.95
2018-09-20T11:00:20.969Z,49.76
2018-09-20T11:01:31.108Z,50.65
2018-09-20T11:02:40.982Z,49.33
2018-09-20T11:03:50.868Z,47.89
2018-09-20T11:05:01.007Z,46.46
2018-09-20T11:06:11.148Z,47.13
2018-09-20T11:07:21.066Z,47.06
2018-09-20T11:08:31.199Z,46.58
2018-09-20T11:09:41.070Z,46.77
2018-09-20T11:10:51.326Z,45.81
2018-09-20T11:12:01.818Z,45.45
2018-09-20T11:13:11.414Z,45.26
2018-09-20T11:14:21.556Z,44.42
2018-09-20T11:15:31.426Z,43.65
2018-09-20T11:16:41.301Z,44.3
2018-09-20T11:17:51.443Z,44.61
2018-09-20T11:19:01.585Z,44.32
2018-09-20T11:20:11.182Z,42.79
2018-09-20T11:21:21.332Z,43.74
2018-09-20T11:22:30.923Z,43.65
2018-09-20T11:23:40.798Z,43.46
2018-09-20T11:24:50.665Z,43.65
2018-09-20T11:26:00.526Z,43.36
2018-09-20T11:27:10.147Z,43.17
2018-09-20T11:28:20.292Z,43.46
2018-09-20T11:29:30.180Z,43.65
2018-09-20T11:30:40.348Z,44.51
2018-09-20T11:31:50.491Z,44.24
2018-09-20T11:33:00.091Z,43.5
2018-09-20T11:34:09.687Z,42.73
2018-09-20T11:35:19.563Z,41.5
2018-09-20T11:36:29.645Z,41.89
2018-09-20T11:37:39.520Z,40.64
2018-09-20T11:38:49.399Z,39.87
2018-09-20T11:39:59.553Z,40.81
2018-09-20T11:41:09.714Z,40.45
2018-09-20T11:42:19.689Z,40.64
2018-09-20T11:43:29.834Z,40.45
2018-09-20T11:44:39.974Z,41.31
2018-09-20T11:45:49.847Z,40.66
2018-09-20T11:47:00.029Z,39.89
2018-09-20T11:48:09.724Z,39.78
2018-09-20T11:49:19.591Z,39.78
2018-09-20T11:50:29.461Z,39.39
2018-09-20T11:51:39.611Z,40.45
2018-09-20T11:52:49.764Z,39.97
2018-09-20T11:53:59.965Z,39.78
2018-09-20T11:55:10.117Z,39.87
2018-09-20T11:56:19.993Z,39.97
2018-09-20T11:57:29.591Z,39.58
2018-09-20T11:58:39.741Z,39.49
2018-09-20T11:59:49.760Z,40.45
2018-09-20T12:00:59.921Z,40.64
2018-09-20T12:02:10.092Z,40.83
2018-09-20T12:03:20.242Z,39.79
2018-09-20T12:04:30.390Z,39.41
2018-09-20T12:05:40.044Z,40.66
2018-09-20T12:06:50.194Z,39.41
2018-09-20T12:07:59.521Z,39.78
2018-09-20T12:09:09.669Z,39.61
2018-09-20T12:10:19.553Z,40.55
2018-09-20T12:11:29.724Z,40.64
2018-09-20T12:12:39.602Z,39.97
2018-09-20T12:13:49.474Z,39.68
2018-09-20T12:14:59.617Z,40.47
2018-09-20T12:16:09.773Z,39.89
2018-09-20T12:17:19.919Z,39.51
2018-09-20T12:18:29.797Z,39.51
2018-09-20T12:19:39.941Z,39.51
2018-09-20T12:20:49.824Z,40.45
2018-09-20T12:21:59.423Z,40.83
2018-09-20T12:23:09.366Z,40.66
2018-09-20T12:24:19.523Z,40.47
2018-09-20T12:25:29.679Z,40.47
2018-09-20T12:26:39.843Z,40.56
2018-09-20T12:27:49.709Z,39.43
2018-09-20T12:29:01.860Z,39.43
2018-09-20T12:30:11.187Z,39.41
2018-09-20T12:31:21.368Z,39.41
2018-09-20T12:32:31.379Z,40.08
2018-09-20T12:33:41.554Z,41.12
2018-09-20T12:34:51.792Z,42.44
2018-09-20T12:36:02.107Z,42.54
2018-09-20T12:37:12.058Z,43
2018-09-20T12:38:22.205Z,43.1
2018-09-20T12:39:31.803Z,43.19
2018-09-20T12:40:41.446Z,42.73
2018-09-20T12:41:51.317Z,42.35
2018-09-20T12:43:01.489Z,41.5
2018-09-20T12:44:11.903Z,41.89
2018-09-20T12:45:22.046Z,40.73
2018-09-20T12:46:31.693Z,41.33
2018-09-20T12:47:41.569Z,40.18
2018-09-20T12:48:51.445Z,42.25
2018-09-20T12:50:01.591Z,42.81
2018-09-20T12:51:11.473Z,43.57
2018-09-20T12:52:21.402Z,43.48
2018-09-20T12:53:31.549Z,44.23
2018-09-20T12:54:41.243Z,44.78
2018-09-20T12:55:51.697Z,43.82
2018-09-20T12:57:01.293Z,44.11
2018-09-20T12:58:10.937Z,44.85
2018-09-20T12:59:20.527Z,45.23
2018-09-20T13:00:30.670Z,45.33
2018-09-20T13:01:40.608Z,46.39
2018-09-20T13:02:50.754Z,46.19
2018-09-20T13:04:00.682Z,45.45
2018-09-20T13:05:10.557Z,45.04
2018-09-20T13:06:20.423Z,45.43
2018-09-20T13:07:30.305Z,45.04
2018-09-20T13:08:40.458Z,45.33
2018-09-20T13:09:50.681Z,45.59
2018-09-20T13:11:00.285Z,46.26
2018-09-20T13:12:09.876Z,46.46
2018-09-20T13:13:20.020Z,46.36
2018-09-20T13:14:30.173Z,46.26
2018-09-20T13:15:40.414Z,46.67
2018-09-20T13:16:50.280Z,46.65
2018-09-20T13:18:00.147Z,46.08
2018-09-20T13:19:09.737Z,46.77
2018-09-20T13:20:19.673Z,46.77
2018-09-20T13:21:29.752Z,45.52
2018-09-20T13:22:39.613Z,45.14
2018-09-20T13:23:49.753Z,46.39
2018-09-20T13:24:59.619Z,45.04
2018-09-20T13:26:09.213Z,45.81
2018-09-20T13:27:18.804Z,45.62
2018-09-20T13:28:28.968Z,45.23
2018-09-20T13:29:38.829Z,45.33
2018-09-20T13:30:48.424Z,45.72
2018-09-20T13:31:58.562Z,45.59
2018-09-20T13:33:09.230Z,44.93
2018-09-20T13:34:18.819Z,45.21
2018-09-20T13:35:28.961Z,46.36
2018-09-20T13:36:39.105Z,45.21
2018-09-20T13:37:48.692Z,45.21
2018-09-20T13:38:58.831Z,45.69
2018-09-20T13:40:08.983Z,46.17
2018-09-20T13:41:18.570Z,47.8
2018-09-20T13:42:28.161Z,47.22
2018-09-20T13:43:38.414Z,46.55
2018-09-20T13:44:48.955Z,45.79
2018-09-20T13:45:59.099Z,46.65
2018-09-20T13:47:09.238Z,46.17
2018-09-20T13:48:19.110Z,47.03
2018-09-20T13:49:29.251Z,47.13
2018-09-20T13:50:39.173Z,46.65
2018-09-20T13:51:48.493Z,46.94
2018-09-20T13:52:58.634Z,47.25
2018-09-20T13:54:08.780Z,46.77
2018-09-20T13:55:18.369Z,46.86
2018-09-20T13:56:28.694Z,45.52
2018-09-20T13:57:39.356Z,45.33
2018-09-20T13:58:49.496Z,45.33
2018-09-20T13:59:59.359Z,45.33
2018-09-20T14:01:09.222Z,46.19
2018-09-20T14:02:19.369Z,46.67
2018-09-20T14:03:29.572Z,47.22
2018-09-20T14:04:39.857Z,46.55
2018-09-20T14:05:50.150Z,46.17
2018-09-20T14:07:00.370Z,46.26
2018-09-20T14:08:10.519Z,45.23
2018-09-20T14:09:20.390Z,46.1
2018-09-20T14:10:30.253Z,43.8
2018-09-20T14:11:40.401Z,44.3
2018-09-20T14:12:50.542Z,43.51
2018-09-20T14:14:00.457Z,44.27
2018-09-20T14:15:10.047Z,45.04
2018-09-20T14:16:20.239Z,45.23
2018-09-20T14:17:30.103Z,45.81
2018-09-20T14:18:39.968Z,45.52
2018-09-20T14:19:49.561Z,43.87
2018-09-20T14:20:59.155Z,45.21
2018-09-20T14:22:09.021Z,44.35
2018-09-20T14:23:18.888Z,44.16
2018-09-20T14:24:28.763Z,43.97
2018-09-20T14:25:38.659Z,44.27
2018-09-20T14:26:48.275Z,43.32
2018-09-20T14:27:58.577Z,43.99
2018-09-20T14:29:08.444Z,44.95
2018-09-20T14:30:18.307Z,44.47
2018-09-20T14:31:28.272Z,44.26
2018-09-20T14:32:37.864Z,44.83
2018-09-20T14:33:47.727Z,44.26
2018-09-20T14:34:57.318Z,44.64
2018-09-20T14:36:06.908Z,44.73
2018-09-20T14:37:16.823Z,45.79
2018-09-20T14:38:26.974Z,45.31
2018-09-20T14:39:36.851Z,43.6
2018-09-20T14:40:46.994Z,43.32
2018-09-20T14:41:57.137Z,43.49
2018-09-20T14:43:07.004Z,44.06
2018-09-20T14:44:16.882Z,44.16
2018-09-20T14:45:26.759Z,45.19
2018-09-20T14:46:36.905Z,44.9
2018-09-20T14:47:45.947Z,45.09
2018-09-20T14:48:55.873Z,45.29
2018-09-20T14:50:05.465Z,46.53
2018-09-20T14:51:15.608Z,46.62
2018-09-20T14:52:25.197Z,46.61
2018-09-20T14:53:35.467Z,47.75
2018-09-20T14:54:45.661Z,48.13
2018-09-20T14:55:55.258Z,48.49
2018-09-20T14:57:05.128Z,48.21
2018-09-20T14:58:15.278Z,48.02
2018-09-20T14:59:25.419Z,48.02
2018-09-20T15:00:35.861Z,48.59
2018-09-20T15:01:46.003Z,48.39
2018-09-20T15:02:55.603Z,48.33
2018-09-20T15:04:05.466Z,48.25
2018-09-20T15:05:15.344Z,48.38